Time;durP1;ratioP1;P1;durP2;ratioP2;P2;SDS_P1;SDS_P2;PMS_P1;PMS_P2;Temp;Humidity;BMP_temperature;BMP_pressure;BME280_temperature;BME280_humidity;BME280_pressure;Samples;Min_cycle;Max_cycle;Signal;HPM_P1;HPM_P2
2022/03/23 00:01:03;;;;;;;9.50;3.97;;;;;;;;;;5093499;28;20064;-38
2022/03/23 00:03:29;;;;;;;11.95;5.03;;;;;;;;;;5093500;28;20012;-38
2022/03/23 00:05:54;;;;;;;10.27;4.05;;;;;;;;;;5092292;28;20044;-39
2022/03/23 00:08:21;;;;;;;7.70;4.18;;;;;;;;;;5093400;28;20020;-38
2022/03/23 00:10:48;;;;;;;10.32;4.07;;;;;;;;;;5093045;28;20032;-38
2022/03/23 00:13:13;;;;;;;8.00;4.18;;;;;;;;;;5092916;28;20016;-38
2022/03/23 00:15:39;;;;;;;8.48;5.32;;;;;;;;;;5093001;28;20527;-38
2022/03/23 00:18:06;;;;;;;10.63;4.93;;;;;;;;;;5093266;28;20023;-38
2022/03/23 00:20:32;;;;;;;8.23;4.18;;;;;;;;;;5092918;28;20020;-38
2022/03/23 00:22:58;;;;;;;6.18;3.22;;;;;;;;;;5093129;28;20448;-38
2022/03/23 00:25:23;;;;;;;10.63;4.70;;;;;;;;;;5092831;28;20429;-38
2022/03/23 00:27:48;;;;;;;10.70;4.18;;;;;;;;;;5092997;28;20073;-38
2022/03/23 00:30:14;;;;;;;8.27;4.68;;;;;;;;;;5092581;28;20386;-38
2022/03/23 00:32:39;;;;;;;9.52;5.43;;;;;;;;;;5091288;28;20032;-39
2022/03/23 00:35:05;;;;;;;11.20;3.63;;;;;;;;;;5091278;28;20028;-38
2022/03/23 00:37:30;;;;;;;10.77;3.67;;;;;;;;;;5091219;28;20020;-38
2022/03/23 00:39:56;;;;;;;6.82;4.00;;;;;;;;;;5092456;28;20024;-38
2022/03/23 00:42:21;;;;;;;6.40;3.88;;;;;;;;;;5091134;28;20020;-38
2022/03/23 00:44:47;;;;;;;9.27;4.57;;;;;;;;;;5092282;28;20077;-38
2022/03/23 00:47:14;;;;;;;13.02;5.07;;;;;;;;;;5092482;28;20072;-38
2022/03/23 00:49:40;;;;;;;13.73;4.30;;;;;;;;;;5090856;28;20127;-39
2022/03/23 00:52:06;;;;;;;8.35;4.75;;;;;;;;;;5092234;28;20393;-38
2022/03/23 00:54:34;;;;;;;8.45;4.05;;;;;;;;;;5092449;28;20020;-38
2022/03/23 00:57:03;;;;;;;6.47;3.53;;;;;;;;;;5092156;28;20036;-38
2022/03/23 00:59:28;;;;;;;5.15;3.53;;;;;;;;;;5090834;28;20032;-38
2022/03/23 01:01:54;;;;;;;6.72;4.18;;;;;;;;;;5092106;28;20020;-38
2022/03/23 01:04:19;;;;;;;10.00;4.18;;;;;;;;;;5092211;28;20035;-39
2022/03/23 01:06:45;;;;;;;11.43;4.97;;;;;;;;;;5092058;28;20020;-38
2022/03/23 01:09:11;;;;;;;12.85;5.05;;;;;;;;;;5092319;28;20101;-38
2022/03/23 01:11:37;;;;;;;5.75;3.67;;;;;;;;;;5091829;28;20016;-38
2022/03/23 01:14:04;;;;;;;9.88;4.53;;;;;;;;;;5091977;28;20035;-42
2022/03/23 01:16:30;;;;;;;9.35;4.38;;;;;;;;;;5091606;28;20119;-39
2022/03/23 01:18:57;;;;;;;7.95;4.32;;;;;;;;;;5090817;28;20028;-38
2022/03/23 01:21:23;;;;;;;6.72;4.32;;;;;;;;;;5092125;28;20362;-38
2022/03/23 01:23:48;;;;;;;11.48;4.15;;;;;;;;;;5090451;28;20524;-38
2022/03/23 01:26:14;;;;;;;10.35;4.45;;;;;;;;;;5091745;28;20024;-38
2022/03/23 01:28:39;;;;;;;5.32;4.25;;;;;;;;;;5091730;28;20371;-38
2022/03/23 01:31:05;;;;;;;7.70;3.90;;;;;;;;;;5090438;28;20419;-38
2022/03/23 01:33:32;;;;;;;8.60;4.97;;;;;;;;;;5090382;28;20024;-38
2022/03/23 01:35:58;;;;;;;6.57;4.57;;;;;;;;;;5091791;28;20069;-38
2022/03/23 01:38:23;;;;;;;8.63;4.45;;;;;;;;;;5091850;28;20062;-38
2022/03/23 01:40:49;;;;;;;7.75;4.03;;;;;;;;;;5091473;28;20024;-38
2022/03/23 01:43:16;;;;;;;6.32;4.65;;;;;;;;;;5091641;28;20382;-38
2022/03/23 01:45:42;;;;;;;6.32;3.83;;;;;;;;;;5090145;28;20028;-38
2022/03/23 01:48:08;;;;;;;12.43;4.55;;;;;;;;;;5091801;28;20043;-38
2022/03/23 01:50:33;;;;;;;7.55;4.43;;;;;;;;;;5091323;28;20020;-38
2022/03/23 01:52:59;;;;;;;6.55;4.28;;;;;;;;;;5091520;28;20032;-38
2022/03/23 01:55:24;;;;;;;8.02;4.50;;;;;;;;;;5091247;28;20054;-38
2022/03/23 01:57:51;;;;;;;9.68;4.78;;;;;;;;;;5091340;28;20637;-38
2022/03/23 02:00:17;;;;;;;7.65;4.30;;;;;;;;;;5090117;28;20032;-38
2022/03/23 02:02:46;;;;;;;9.38;4.97;;;;;;;;;;5089915;28;20382;-38
2022/03/23 02:05:15;;;;;;;11.32;4.70;;;;;;;;;;5091495;28;20062;-39
2022/03/23 02:07:47;;;;;;;9.27;4.38;;;;;;;;;;5089998;28;20446;-38
2022/03/23 02:10:13;;;;;;;6.85;3.60;;;;;;;;;;5089875;28;20115;-38
2022/03/23 02:12:58;;;;;;;10.18;4.35;;;;;;;;;;5091513;28;20075;-38
2022/03/23 02:15:26;;;;;;;8.85;4.78;;;;;;;;;;5089857;28;20487;-38
2022/03/23 02:17:54;;;;;;;9.02;4.38;;;;;;;;;;5091102;28;20103;-38
2022/03/23 02:20:20;;;;;;;8.05;5.43;;;;;;;;;;5089862;28;20458;-38
2022/03/23 02:22:46;;;;;;;10.27;4.72;;;;;;;;;;5089843;28;20478;-38
2022/03/23 02:25:13;;;;;;;7.47;4.40;;;;;;;;;;5089839;28;20028;-39
2022/03/23 02:27:40;;;;;;;11.18;4.30;;;;;;;;;;5091161;28;20093;-39
2022/03/23 02:30:07;;;;;;;6.88;4.15;;;;;;;;;;5095038;28;20381;-38
2022/03/23 02:32:32;;;;;;;7.25;4.28;;;;;;;;;;5095030;28;20020;-38
2022/03/23 02:34:58;;;;;;;10.38;4.47;;;;;;;;;;5094960;28;20429;-38
2022/03/23 02:37:24;;;;;;;14.68;5.10;;;;;;;;;;5095085;28;20028;-38
2022/03/23 02:39:49;;;;;;;8.68;5.00;;;;;;;;;;5094779;28;20047;-39
2022/03/23 02:42:15;;;;;;;5.65;3.55;;;;;;;;;;5095135;28;20020;-38
2022/03/23 02:44:41;;;;;;;8.32;4.40;;;;;;;;;;5094617;28;20024;-38
2022/03/23 02:47:08;;;;;;;11.10;3.95;;;;;;;;;;5095033;28;20081;-38
2022/03/23 02:49:35;;;;;;;5.40;3.33;;;;;;;;;;5094645;28;20028;-38
2022/03/23 02:52:00;;;;;;;7.60;4.28;;;;;;;;;;5094507;28;20047;-39
2022/03/23 03:03:38;;;;;;;9.70;4.55;;;;;;;;;;5094369;28;20466;-38
2022/03/23 03:06:04;;;;;;;9.07;4.28;;;;;;;;;;5094246;28;20027;-38
2022/03/23 03:08:44;;;;;;;11.52;4.97;;;;;;;;;;5094422;28;20040;-38
2022/03/23 03:11:10;;;;;;;5.80;3.67;;;;;;;;;;5094430;28;20043;-38
2022/03/23 03:13:35;;;;;;;6.75;3.40;;;;;;;;;;5094238;28;20043;-38
2022/03/23 03:16:05;;;;;;;6.65;3.65;;;;;;;;;;5094073;28;20126;-38
2022/03/23 03:18:34;;;;;;;7.22;4.07;;;;;;;;;;5094182;28;20394;-38
2022/03/23 03:21:03;;;;;;;6.75;3.20;;;;;;;;;;5094295;28;20032;-38
2022/03/23 03:23:28;;;;;;;7.20;4.10;;;;;;;;;;5094407;28;20055;-38
2022/03/23 03:25:54;;;;;;;5.70;4.03;;;;;;;;;;5093933;28;20070;-39
2022/03/23 03:28:19;;;;;;;9.68;4.05;;;;;;;;;;5093849;28;20042;-38
2022/03/23 03:30:44;;;;;;;7.00;4.00;;;;;;;;;;5093855;28;20032;-38
2022/03/23 03:33:10;;;;;;;9.00;4.50;;;;;;;;;;5093869;28;20016;-38
2022/03/23 03:35:35;;;;;;;7.35;3.60;;;;;;;;;;5093982;28;20032;-39
2022/03/23 03:38:01;;;;;;;6.70;3.83;;;;;;;;;;5094047;28;20438;-38
2022/03/23 03:40:26;;;;;;;12.27;4.45;;;;;;;;;;5093418;28;20035;-38
2022/03/23 03:42:51;;;;;;;8.15;3.95;;;;;;;;;;5093768;28;20020;-38
2022/03/23 03:45:17;;;;;;;3.90;3.17;;;;;;;;;;5093937;28;20453;-38
2022/03/23 03:47:42;;;;;;;8.07;4.43;;;;;;;;;;5093483;28;20114;-38
2022/03/23 03:50:08;;;;;;;4.70;3.03;;;;;;;;;;5093527;28;20088;-38
2022/03/23 03:52:34;;;;;;;6.90;4.93;;;;;;;;;;5093382;28;20067;-39
2022/03/23 03:54:59;;;;;;;9.07;3.92;;;;;;;;;;5093270;28;20133;-38
2022/03/23 03:57:24;;;;;;;8.38;4.40;;;;;;;;;;5093526;28;20043;-38
2022/03/23 03:59:50;;;;;;;6.40;3.63;;;;;;;;;;5093202;28;20039;-38
2022/03/23 04:02:15;;;;;;;6.95;3.40;;;;;;;;;;5093594;28;20036;-38
2022/03/23 04:04:40;;;;;;;7.75;3.88;;;;;;;;;;5093122;28;20099;-39
2022/03/23 04:07:06;;;;;;;5.95;3.90;;;;;;;;;;5093194;28;20022;-39
2022/03/23 04:09:31;;;;;;;5.75;3.10;;;;;;;;;;5093101;28;20100;-38
2022/03/23 04:11:57;;;;;;;6.93;3.20;;;;;;;;;;5092940;28;20111;-38
2022/03/23 04:14:22;;;;;;;7.15;3.20;;;;;;;;;;5091857;28;20025;-38
2022/03/23 04:16:47;;;;;;;6.82;3.83;;;;;;;;;;5092769;28;20141;-38
2022/03/23 04:19:13;;;;;;;8.02;3.97;;;;;;;;;;5091731;28;20024;-38
2022/03/23 04:21:38;;;;;;;6.63;3.83;;;;;;;;;;5091604;28;20084;-39
2022/03/23 04:24:04;;;;;;;5.55;3.08;;;;;;;;;;5092803;28;20482;-38
2022/03/23 04:26:29;;;;;;;6.10;3.45;;;;;;;;;;5093123;28;20111;-38
2022/03/23 04:28:55;;;;;;;6.82;4.43;;;;;;;;;;5092680;28;20093;-38
2022/03/23 04:31:20;;;;;;;4.88;2.90;;;;;;;;;;5092913;28;20035;-38
2022/03/23 04:33:46;;;;;;;9.82;3.70;;;;;;;;;;5092602;28;20474;-38
2022/03/23 04:36:11;;;;;;;4.63;3.45;;;;;;;;;;5092899;28;20036;-38
2022/03/23 04:38:36;;;;;;;4.75;2.63;;;;;;;;;;5092552;28;20382;-38
2022/03/23 04:41:03;;;;;;;8.38;3.80;;;;;;;;;;5092509;28;20027;-38
2022/03/23 04:43:29;;;;;;;5.57;3.30;;;;;;;;;;5092751;28;20150;-38
2022/03/23 04:45:54;;;;;;;7.63;3.35;;;;;;;;;;5092376;28;20091;-38
2022/03/23 04:48:20;;;;;;;7.30;3.53;;;;;;;;;;5092424;28;20531;-38
2022/03/23 04:50:47;;;;;;;7.90;3.72;;;;;;;;;;5091579;28;20028;-38
2022/03/23 04:53:12;;;;;;;9.10;3.95;;;;;;;;;;5092392;28;20039;-38
2022/03/23 04:55:38;;;;;;;6.78;4.15;;;;;;;;;;5092195;28;20032;-39
2022/03/23 04:58:04;;;;;;;5.70;3.13;;;;;;;;;;5092533;28;20629;-38
2022/03/23 05:00:29;;;;;;;9.18;3.60;;;;;;;;;;5092471;28;20232;-38
2022/03/23 05:02:55;;;;;;;7.30;4.03;;;;;;;;;;5092131;28;20028;-38
2022/03/23 05:05:20;;;;;;;11.55;3.20;;;;;;;;;;5092128;28;20062;-38
2022/03/23 05:07:46;;;;;;;9.60;3.90;;;;;;;;;;5091968;28;20024;-38
2022/03/23 05:10:12;;;;;;;7.30;3.60;;;;;;;;;;5092074;28;20017;-38
2022/03/23 05:12:38;;;;;;;6.53;3.67;;;;;;;;;;5091972;28;20032;-38
2022/03/23 05:15:05;;;;;;;10.15;4.70;;;;;;;;;;5091962;28;20551;-38
2022/03/23 05:17:31;;;;;;;4.38;2.95;;;;;;;;;;5091927;28;20512;-38
2022/03/23 05:19:57;;;;;;;5.93;3.55;;;;;;;;;;5091789;28;20008;-38
2022/03/23 05:22:22;;;;;;;6.32;3.50;;;;;;;;;;5091825;28;20375;-38
2022/03/23 05:24:48;;;;;;;8.23;3.65;;;;;;;;;;5092061;28;20343;-38
2022/03/23 05:27:13;;;;;;;6.30;2.97;;;;;;;;;;5091795;28;20130;-39
2022/03/23 05:29:39;;;;;;;6.70;3.85;;;;;;;;;;5091600;28;20046;-38
2022/03/23 05:32:05;;;;;;;6.03;3.78;;;;;;;;;;5091764;28;20103;-38
2022/03/23 05:34:32;;;;;;;5.82;3.42;;;;;;;;;;5091611;28;20039;-38
2022/03/23 05:36:58;;;;;;;6.15;2.60;;;;;;;;;;5091534;28;20036;-38
2022/03/23 05:39:23;;;;;;;5.47;3.22;;;;;;;;;;5092046;28;20027;-37
2022/03/23 05:41:48;;;;;;;5.28;2.65;;;;;;;;;;5092250;28;20462;-38
2022/03/23 05:44:14;;;;;;;4.63;3.30;;;;;;;;;;5092355;28;20384;-38
2022/03/23 05:46:39;;;;;;;4.40;2.67;;;;;;;;;;5091936;28;20036;-38
2022/03/23 05:49:05;;;;;;;5.95;3.40;;;;;;;;;;5091962;28;20019;-38
2022/03/23 05:51:30;;;;;;;5.35;2.63;;;;;;;;;;5091961;28;20055;-38
2022/03/23 05:53:56;;;;;;;5.28;3.80;;;;;;;;;;5092146;28;20505;-38
2022/03/23 05:56:21;;;;;;;9.57;3.95;;;;;;;;;;5091857;28;20056;-37
2022/03/23 05:58:47;;;;;;;6.45;4.15;;;;;;;;;;5091331;28;20008;-38
2022/03/23 06:01:12;;;;;;;5.80;3.70;;;;;;;;;;5090906;28;20063;-38
2022/03/23 06:03:38;;;;;;;3.47;2.80;;;;;;;;;;5093763;28;20069;-38
2022/03/23 06:06:03;;;;;;;4.65;3.35;;;;;;;;;;5096005;28;20034;-38
2022/03/23 06:08:29;;;;;;;5.90;3.53;;;;;;;;;;5095951;28;20036;-38
2022/03/23 06:10:55;;;;;;;5.43;3.30;;;;;;;;;;5096071;28;20082;-38
2022/03/23 06:13:20;;;;;;;5.45;3.15;;;;;;;;;;5095849;28;20024;-38
2022/03/23 06:15:46;;;;;;;6.43;2.88;;;;;;;;;;5094493;28;20079;-37
2022/03/23 06:18:12;;;;;;;6.90;3.28;;;;;;;;;;5095994;28;20027;-38
2022/03/23 06:20:37;;;;;;;5.93;3.00;;;;;;;;;;5096081;28;20478;-38
2022/03/23 06:23:03;;;;;;;6.07;2.92;;;;;;;;;;5095220;28;20020;-37
2022/03/23 06:25:29;;;;;;;6.13;2.90;;;;;;;;;;5095429;28;20501;-38
2022/03/23 06:27:55;;;;;;;6.03;3.47;;;;;;;;;;5095497;28;20028;-38
2022/03/23 06:30:20;;;;;;;7.70;3.22;;;;;;;;;;5095524;28;20032;-38
2022/03/23 06:32:45;;;;;;;9.30;4.13;;;;;;;;;;5095433;28;20024;-38
2022/03/23 06:35:11;;;;;;;4.78;3.00;;;;;;;;;;5094999;28;20020;-39
2022/03/23 06:37:36;;;;;;;10.82;2.92;;;;;;;;;;5094947;28;20028;-38
2022/03/23 06:40:03;;;;;;;4.95;3.10;;;;;;;;;;5094756;28;20035;-37
2022/03/23 06:42:29;;;;;;;7.68;3.22;;;;;;;;;;5095029;28;20473;-38
2022/03/23 06:44:54;;;;;;;9.07;3.92;;;;;;;;;;5095305;28;20032;-38
2022/03/23 06:47:20;;;;;;;5.88;3.05;;;;;;;;;;5095322;28;20016;-38
2022/03/23 06:49:45;;;;;;;6.10;3.28;;;;;;;;;;5095166;28;20043;-38
2022/03/23 06:52:11;;;;;;;8.15;3.63;;;;;;;;;;5095008;28;20079;-38
2022/03/23 06:54:36;;;;;;;10.07;3.38;;;;;;;;;;5095387;28;20073;-38
2022/03/23 06:57:02;;;;;;;4.88;2.33;;;;;;;;;;5094993;28;20434;-38
2022/03/23 06:59:28;;;;;;;5.15;3.65;;;;;;;;;;5095616;28;20026;-38
2022/03/23 07:01:54;;;;;;;5.28;2.78;;;;;;;;;;5095148;28;20377;-38
2022/03/23 07:04:19;;;;;;;5.15;2.70;;;;;;;;;;5095018;28;20428;-38
2022/03/23 07:06:45;;;;;;;5.07;3.05;;;;;;;;;;5094836;28;20027;-38
2022/03/23 07:11:54;;;;;;;5.38;2.60;;;;;;;;;;5094790;28;20030;-38
2022/03/23 07:14:20;;;;;;;4.53;2.72;;;;;;;;;;5094164;28;20020;-38
2022/03/23 07:16:45;;;;;;;4.38;2.80;;;;;;;;;;5094795;28;20028;-38
2022/03/23 07:19:11;;;;;;;6.72;2.67;;;;;;;;;;5094636;28;20112;-38
2022/03/23 07:21:37;;;;;;;7.82;4.53;;;;;;;;;;5094640;28;20181;-38
2022/03/23 07:24:03;;;;;;;4.43;2.85;;;;;;;;;;5094745;28;20106;-38
2022/03/23 07:26:28;;;;;;;7.13;3.47;;;;;;;;;;5094580;28;20110;-37
2022/03/23 07:28:54;;;;;;;5.28;2.75;;;;;;;;;;5094376;28;20051;-37
2022/03/23 07:31:19;;;;;;;6.30;3.17;;;;;;;;;;5094425;28;20249;-39
2022/03/23 07:33:45;;;;;;;5.05;3.15;;;;;;;;;;5094604;28;20031;-38
2022/03/23 07:36:12;;;;;;;5.38;2.67;;;;;;;;;;5094287;28;20130;-38
2022/03/23 07:38:38;;;;;;;6.82;3.13;;;;;;;;;;5094257;28;20027;-38
2022/03/23 07:41:03;;;;;;;8.02;3.38;;;;;;;;;;5094447;28;20393;-38
2022/03/23 07:43:28;;;;;;;5.72;3.13;;;;;;;;;;5094061;28;20016;-38
2022/03/23 07:45:54;;;;;;;8.82;3.55;;;;;;;;;;5092865;28;20028;-38
2022/03/23 07:48:22;;;;;;;4.53;2.63;;;;;;;;;;5094188;28;20067;-38
2022/03/23 07:50:55;;;;;;;6.60;3.33;;;;;;;;;;5093705;28;20123;-38
2022/03/23 07:53:20;;;;;;;5.32;2.78;;;;;;;;;;5094133;28;20093;-38
2022/03/23 07:55:45;;;;;;;4.13;3.05;;;;;;;;;;5093833;28;20035;-38
2022/03/23 07:58:11;;;;;;;5.68;3.38;;;;;;;;;;5093912;28;20020;-38
2022/03/23 08:00:38;;;;;;;6.88;3.08;;;;;;;;;;5093915;28;20020;-38
2022/03/23 08:03:04;;;;;;;5.82;3.10;;;;;;;;;;5093784;28;20060;-38
2022/03/23 08:05:31;;;;;;;5.13;3.15;;;;;;;;;;5093697;28;20075;-38
2022/03/23 08:07:57;;;;;;;4.60;2.95;;;;;;;;;;5093307;28;20028;-38
2022/03/23 08:10:23;;;;;;;9.75;3.17;;;;;;;;;;5093171;28;20031;-38
2022/03/23 08:12:51;;;;;;;4.80;3.00;;;;;;;;;;5093001;28;20023;-38
2022/03/23 08:15:17;;;;;;;5.53;3.28;;;;;;;;;;5093663;28;20028;-38
2022/03/23 08:17:42;;;;;;;4.47;2.45;;;;;;;;;;5093315;28;20036;-39
2022/03/23 08:22:53;;;;;;;5.18;2.28;;;;;;;;;;5093390;28;20035;-38
2022/03/23 08:25:19;;;;;;;5.13;3.17;;;;;;;;;;5092897;28;20024;-38
2022/03/23 08:27:44;;;;;;;5.40;3.47;;;;;;;;;;5092845;28;20028;-38
2022/03/23 08:30:10;;;;;;;7.22;2.70;;;;;;;;;;5093296;28;20549;-38
2022/03/23 08:32:35;;;;;;;3.72;2.03;;;;;;;;;;5093246;28;20086;-38
2022/03/23 08:35:01;;;;;;;8.05;2.42;;;;;;;;;;5093422;28;20031;-38
2022/03/23 08:37:28;;;;;;;4.30;2.28;;;;;;;;;;5093357;28;20657;-38
2022/03/23 08:39:53;;;;;;;4.70;3.15;;;;;;;;;;5092975;28;20020;-38
2022/03/23 08:42:19;;;;;;;3.83;2.35;;;;;;;;;;5093050;28;20054;-38
2022/03/23 08:44:45;;;;;;;3.88;2.45;;;;;;;;;;5093018;28;20023;-39
2022/03/23 08:47:12;;;;;;;5.22;2.92;;;;;;;;;;5092904;28;20038;-38
2022/03/23 08:49:37;;;;;;;6.68;2.78;;;;;;;;;;5093114;28;20020;-40
2022/03/23 08:52:03;;;;;;;3.75;2.53;;;;;;;;;;5092772;28;20469;-38
2022/03/23 08:54:29;;;;;;;5.57;2.80;;;;;;;;;;5093070;28;20099;-38
2022/03/23 08:56:54;;;;;;;7.72;3.10;;;;;;;;;;5092435;28;20064;-38
2022/03/23 08:59:20;;;;;;;3.75;2.58;;;;;;;;;;5092595;28;20016;-38
2022/03/23 09:01:45;;;;;;;5.32;2.95;;;;;;;;;;5092432;28;20032;-38
2022/03/23 09:04:11;;;;;;;6.18;3.05;;;;;;;;;;5092763;28;20012;-38
2022/03/23 09:06:36;;;;;;;6.80;3.00;;;;;;;;;;5092676;28;20039;-38
2022/03/23 09:09:02;;;;;;;4.40;3.25;;;;;;;;;;5092402;28;20065;-38
2022/03/23 09:11:27;;;;;;;7.70;3.25;;;;;;;;;;5092640;28;20049;-38
2022/03/23 09:13:53;;;;;;;4.28;2.78;;;;;;;;;;5092458;28;20013;-39
2022/03/23 09:16:18;;;;;;;3.45;2.55;;;;;;;;;;5092070;28;20032;-38
2022/03/23 09:18:44;;;;;;;4.93;2.95;;;;;;;;;;5091880;28;20146;-39
2022/03/23 09:21:09;;;;;;;7.82;3.15;;;;;;;;;;5091940;28;20059;-38
2022/03/23 09:23:36;;;;;;;4.90;3.00;;;;;;;;;;5091876;28;20015;-38
2022/03/23 09:26:02;;;;;;;7.57;2.78;;;;;;;;;;5091796;28;20401;-38
2022/03/23 09:28:28;;;;;;;5.82;2.88;;;;;;;;;;5091733;28;20027;-38
2022/03/23 09:30:53;;;;;;;7.20;3.80;;;;;;;;;;5091902;28;20337;-40
2022/03/23 09:33:19;;;;;;;4.88;2.65;;;;;;;;;;5091737;28;20028;-38
2022/03/23 09:35:44;;;;;;;5.53;2.65;;;;;;;;;;5091446;28;20044;-38
2022/03/23 09:38:10;;;;;;;7.68;2.72;;;;;;;;;;5091396;28;20069;-38
2022/03/23 09:40:35;;;;;;;4.22;3.03;;;;;;;;;;5090282;28;20068;-38
2022/03/23 09:43:08;;;;;;;8.15;2.95;;;;;;;;;;5091585;28;20032;-38
2022/03/23 09:48:00;;;;;;;6.18;3.08;;;;;;;;;;5091713;28;20031;-39
2022/03/23 09:50:29;;;;;;;7.65;3.15;;;;;;;;;;5091523;28;20031;-39
2022/03/23 09:52:55;;;;;;;7.18;2.40;;;;;;;;;;5091308;28;20044;-38
2022/03/23 09:55:21;;;;;;;5.97;2.60;;;;;;;;;;5091640;28;20039;-38
2022/03/23 09:57:46;;;;;;;4.18;2.15;;;;;;;;;;5091296;28;20089;-39
2022/03/23 10:00:13;;;;;;;5.25;2.42;;;;;;;;;;5091790;28;20060;-38
2022/03/23 10:02:39;;;;;;;1.92;1.67;;;;;;;;;;5091471;28;20027;-38
2022/03/23 10:05:10;;;;;;;2.53;2.33;;;;;;;;;;5089977;28;20397;-38
2022/03/23 10:08:08;;;;;;;6.28;3.13;;;;;;;;;;5091366;28;20024;-38
2022/03/23 10:10:56;;;;;;;4.85;2.42;;;;;;;;;;5046383;28;20086;-38
2022/03/23 10:13:41;;;;;;;3.78;2.17;;;;;;;;;;5091146;28;20043;-38
2022/03/23 10:16:21;;;;;;;4.10;2.60;;;;;;;;;;5091191;28;20044;-38
2022/03/23 10:18:57;;;;;;;7.82;3.60;;;;;;;;;;5091172;28;20103;-38
2022/03/23 10:21:24;;;;;;;5.60;2.60;;;;;;;;;;5091512;28;20032;-38
2022/03/23 10:23:50;;;;;;;4.47;2.47;;;;;;;;;;5091236;28;20016;-39
2022/03/23 10:26:16;;;;;;;6.03;2.20;;;;;;;;;;5091150;28;20038;-38
2022/03/23 10:28:41;;;;;;;3.85;2.63;;;;;;;;;;5091124;28;20028;-38
2022/03/23 10:31:16;;;;;;;5.50;2.40;;;;;;;;;;5091185;28;20111;-38
2022/03/23 10:33:42;;;;;;;5.68;2.42;;;;;;;;;;5091737;28;20059;-38
2022/03/23 10:36:07;;;;;;;4.03;1.90;;;;;;;;;;5091056;28;20161;-38
2022/03/23 10:38:37;;;;;;;4.97;2.20;;;;;;;;;;5091208;28;20036;-38
2022/03/23 10:41:08;;;;;;;5.63;2.72;;;;;;;;;;5091206;28;20434;-38
2022/03/23 10:43:37;;;;;;;4.82;2.70;;;;;;;;;;5091320;28;20028;-38
2022/03/23 10:46:11;;;;;;;2.50;2.17;;;;;;;;;;5090988;28;20027;-38
2022/03/23 10:48:48;;;;;;;5.32;2.08;;;;;;;;;;5091161;28;20024;-38
2022/03/23 10:51:14;;;;;;;4.82;2.78;;;;;;;;;;5094619;28;20063;-39
2022/03/23 10:53:41;;;;;;;3.40;1.77;;;;;;;;;;5094924;28;20036;-38
2022/03/23 10:56:07;;;;;;;6.40;2.55;;;;;;;;;;5094471;28;20089;-38
2022/03/23 10:58:34;;;;;;;5.85;2.53;;;;;;;;;;5093342;28;20094;-38
2022/03/23 11:01:01;;;;;;;7.63;2.70;;;;;;;;;;5094846;28;20028;-38
2022/03/23 11:03:39;;;;;;;4.68;1.98;;;;;;;;;;5094511;28;20484;-39
2022/03/23 11:06:06;;;;;;;4.30;2.10;;;;;;;;;;5094667;28;20075;-39
2022/03/23 11:08:32;;;;;;;7.00;2.55;;;;;;;;;;5094656;28;20024;-38
2022/03/23 11:16:44;;;;;;;5.93;2.28;;;;;;;;;;5094181;28;20093;-38
2022/03/23 11:19:12;;;;;;;4.63;2.38;;;;;;;;;;5094131;28;20028;-38
2022/03/23 11:21:57;;;;;;;7.90;3.17;;;;;;;;;;5094212;28;20032;-38
2022/03/23 11:24:23;;;;;;;6.32;2.95;;;;;;;;;;5093999;28;20543;-38
2022/03/23 11:26:50;;;;;;;3.45;2.38;;;;;;;;;;5094061;28;20027;-38
2022/03/23 11:29:17;;;;;;;2.88;1.73;;;;;;;;;;5094263;28;20028;-38
2022/03/23 11:31:45;;;;;;;3.03;1.90;;;;;;;;;;5094006;28;20130;-38
2022/03/23 11:34:13;;;;;;;4.28;2.70;;;;;;;;;;5093789;28;20119;-38
2022/03/23 11:36:41;;;;;;;4.10;2.13;;;;;;;;;;5093755;28;20028;-38
2022/03/23 11:39:06;;;;;;;2.67;2.17;;;;;;;;;;5093549;28;20038;-38
2022/03/23 11:41:32;;;;;;;3.70;2.45;;;;;;;;;;5093772;28;20012;-39
2022/03/23 11:43:58;;;;;;;2.45;1.90;;;;;;;;;;5093749;28;20028;-38
2022/03/23 11:46:25;;;;;;;5.03;2.33;;;;;;;;;;5093658;28;20507;-38
2022/03/23 11:49:06;;;;;;;4.97;1.98;;;;;;;;;;5093561;28;20032;-38
2022/03/23 11:51:45;;;;;;;4.90;2.40;;;;;;;;;;5093385;28;20044;-38
2022/03/23 11:57:44;;;;;;;6.07;2.67;;;;;;;;;;5086468;28;20094;-38
2022/03/23 12:00:18;;;;;;;2.92;2.08;;;;;;;;;;5093169;28;20032;-38
2022/03/23 12:02:45;;;;;;;9.40;2.70;;;;;;;;;;5093646;28;20081;-38
2022/03/23 12:05:22;;;;;;;9.48;2.30;;;;;;;;;;5093312;28;20054;-39
2022/03/23 12:07:50;;;;;;;4.68;2.70;;;;;;;;;;5092171;28;20053;-38
2022/03/23 12:10:20;;;;;;;5.03;2.38;;;;;;;;;;5093572;28;20016;-38
2022/03/23 12:12:46;;;;;;;4.60;1.85;;;;;;;;;;5093616;28;20031;-39
2022/03/23 12:15:17;;;;;;;3.78;2.55;;;;;;;;;;5093743;28;20011;-38
2022/03/23 12:17:57;;;;;;;5.35;2.88;;;;;;;;;;5092621;28;20055;-38
2022/03/23 12:20:27;;;;;;;3.83;2.83;;;;;;;;;;5092320;28;20043;-39
2022/03/23 12:22:55;;;;;;;5.90;2.63;;;;;;;;;;5092165;28;20059;-38
2022/03/23 12:25:37;;;;;;;5.88;3.10;;;;;;;;;;5092210;28;20032;-39
2022/03/23 12:28:18;;;;;;;4.35;2.40;;;;;;;;;;5092276;28;20111;-38
2022/03/23 12:30:56;;;;;;;6.28;3.17;;;;;;;;;;5092144;28;20078;-39
2022/03/23 12:33:22;;;;;;;5.85;2.25;;;;;;;;;;5092248;28;20115;-38
2022/03/23 12:35:51;;;;;;;5.68;2.53;;;;;;;;;;5090571;28;20413;-38
2022/03/23 12:38:22;;;;;;;3.33;1.83;;;;;;;;;;5090588;28;20063;-38
2022/03/23 12:40:48;;;;;;;3.60;2.17;;;;;;;;;;5091853;28;20028;-38
2022/03/23 12:43:34;;;;;;;5.75;3.05;;;;;;;;;;5092122;28;20373;-39
2022/03/23 12:46:01;;;;;;;4.78;2.03;;;;;;;;;;5092124;28;20177;-38
2022/03/23 12:59:36;;;;;;;2.65;2.40;;;;;;;;;;5091584;28;20048;-38
2022/03/23 13:02:17;;;;;;;5.85;3.15;;;;;;;;;;5091521;28;20035;-39
2022/03/23 13:04:43;;;;;;;6.05;2.63;;;;;;;;;;5091378;28;20034;-38
2022/03/23 13:07:27;;;;;;;5.85;2.35;;;;;;;;;;5091316;28;20091;-38
2022/03/23 13:10:20;;;;;;;3.45;2.50;;;;;;;;;;5090089;28;20032;-38
2022/03/23 13:12:49;;;;;;;8.40;3.08;;;;;;;;;;5082337;28;20048;-38
2022/03/23 13:15:15;;;;;;;6.40;3.00;;;;;;;;;;5091556;28;20028;-39
2022/03/23 13:17:42;;;;;;;4.43;2.22;;;;;;;;;;5091144;28;20506;-39
2022/03/23 13:20:09;;;;;;;3.13;2.47;;;;;;;;;;5091160;28;20078;-38
2022/03/23 13:22:39;;;;;;;4.72;2.38;;;;;;;;;;5091207;28;20098;-38
2022/03/23 13:25:15;;;;;;;3.03;2.65;;;;;;;;;;5091105;28;20024;-38
2022/03/23 13:27:41;;;;;;;3.67;1.90;;;;;;;;;;5091068;28;20020;-39
2022/03/23 13:30:09;;;;;;;3.70;2.42;;;;;;;;;;5091002;28;20044;-38
2022/03/23 13:32:36;;;;;;;4.38;2.30;;;;;;;;;;5091107;28;20028;-39
2022/03/23 13:35:02;;;;;;;4.28;2.67;;;;;;;;;;5090972;28;20059;-39
2022/03/23 13:37:31;;;;;;;3.70;2.40;;;;;;;;;;5090897;28;20085;-38
2022/03/23 13:39:57;;;;;;;3.35;2.08;;;;;;;;;;5090785;28;20016;-39
2022/03/23 13:43:23;;;;;;;4.45;2.42;;;;;;;;;;5090897;28;20035;-39
2022/03/23 13:45:17;;;;;;;1.77;1.33;;;;;;;;;;5077471;28;20036;-39
2022/03/23 13:47:44;;;;;;;11.45;3.20;;;;;;;;;;5091078;28;20016;-38
2022/03/23 13:50:12;;;;;;;3.75;1.85;;;;;;;;;;5090883;28;20024;-39
2022/03/23 13:52:38;;;;;;;4.05;1.92;;;;;;;;;;5090602;28;20070;-39
2022/03/23 13:55:04;;;;;;;3.10;1.67;;;;;;;;;;5090846;28;20055;-39
2022/03/23 13:57:31;;;;;;;2.22;1.63;;;;;;;;;;5090640;28;20039;-38
2022/03/23 13:59:59;;;;;;;7.38;2.72;;;;;;;;;;5090667;28;20104;-38
2022/03/23 14:02:25;;;;;;;2.97;1.85;;;;;;;;;;5090688;28;20492;-38
2022/03/23 14:04:51;;;;;;;6.03;1.92;;;;;;;;;;5090761;28;20095;-39
2022/03/23 14:07:17;;;;;;;4.70;2.47;;;;;;;;;;5091048;28;20017;-39
2022/03/23 14:09:42;;;;;;;3.72;2.15;;;;;;;;;;5090670;28;20024;-38
2022/03/23 14:12:12;;;;;;;1.90;1.75;;;;;;;;;;5090652;28;20020;-39
2022/03/23 14:14:40;;;;;;;4.65;1.90;;;;;;;;;;5090544;28;20496;-38
2022/03/23 14:17:46;;;;;;;5.78;2.70;;;;;;;;;;5090308;28;20470;-38
2022/03/23 14:20:05;;;;;;;7.03;2.95;;;;;;;;;;5086494;28;20043;-38
2022/03/23 14:22:31;;;;;;;3.25;1.90;;;;;;;;;;5090764;28;20043;-38
2022/03/23 14:24:58;;;;;;;4.10;2.28;;;;;;;;;;5092678;28;20461;-39
2022/03/23 14:27:24;;;;;;;4.82;2.60;;;;;;;;;;5094549;28;20043;-38
2022/03/23 14:30:08;;;;;;;5.07;2.38;;;;;;;;;;5094505;28;20040;-38
2022/03/23 14:32:52;;;;;;;3.92;2.22;;;;;;;;;;5094432;28;20512;-38
2022/03/23 14:35:19;;;;;;;2.22;1.52;;;;;;;;;;5094526;28;20024;-39
2022/03/23 14:37:45;;;;;;;5.68;2.30;;;;;;;;;;5092891;28;20031;-40
2022/03/23 14:40:17;;;;;;;6.20;2.45;;;;;;;;;;5094194;28;20085;-39
2022/03/23 14:42:43;;;;;;;4.00;2.25;;;;;;;;;;5094221;28;20450;-38
2022/03/23 14:45:25;;;;;;;5.00;2.58;;;;;;;;;;5094113;28;20027;-39
2022/03/23 14:47:51;;;;;;;6.95;2.05;;;;;;;;;;5094224;28;20044;-38
2022/03/23 14:50:16;;;;;;;4.95;2.20;;;;;;;;;;5094313;28;20031;-39
2022/03/23 14:52:42;;;;;;;4.45;2.55;;;;;;;;;;5094409;28;20052;-39
2022/03/23 14:55:08;;;;;;;2.65;1.90;;;;;;;;;;5094703;28;20024;-38
2022/03/23 14:57:34;;;;;;;2.80;1.98;;;;;;;;;;5094482;28;20039;-38
2022/03/23 15:00:04;;;;;;;3.47;1.92;;;;;;;;;;5094515;28;20366;-38
2022/03/23 15:02:32;;;;;;;4.35;2.53;;;;;;;;;;5094879;28;20378;-38
2022/03/23 15:04:58;;;;;;;2.88;1.75;;;;;;;;;;5094397;28;20389;-38
2022/03/23 15:15:45;;;;;;;1.45;1.13;;;;;;;;;;5094272;28;20024;-38
2022/03/23 15:18:12;;;;;;;3.00;2.10;;;;;;;;;;5094486;28;20037;-38
2022/03/23 15:20:39;;;;;;;7.18;1.75;;;;;;;;;;5094234;28;20027;-38
2022/03/23 15:23:05;;;;;;;4.07;2.50;;;;;;;;;;5094103;28;20024;-39
2022/03/23 15:25:31;;;;;;;4.72;1.70;;;;;;;;;;5094152;28;20019;-39
2022/03/23 15:27:59;;;;;;;3.35;2.40;;;;;;;;;;5094224;28;20027;-39
2022/03/23 15:30:25;;;;;;;4.53;2.17;;;;;;;;;;5094299;28;20024;-38